createdAt,value
2018-05-10T00:01:22.184Z,16.80
2018-05-10T00:03:49.674Z,16.80
2018-05-10T00:06:17.165Z,16.90
2018-05-10T00:08:44.633Z,16.60
2018-05-10T00:11:12.104Z,16.60
2018-05-10T00:13:39.607Z,16.70
2018-05-10T00:16:07.077Z,16.60
2018-05-10T00:18:34.581Z,16.50
2018-05-10T00:21:02.821Z,16.30
2018-05-10T00:23:30.323Z,16.30
2018-05-10T00:25:58.556Z,16.30
2018-05-10T00:28:26.056Z,16.30
2018-05-10T00:30:54.322Z,16.40
2018-05-10T00:33:22.561Z,16.50
2018-05-10T00:35:50.045Z,16.40
2018-05-10T00:38:17.516Z,16.30
2018-05-10T00:40:45.773Z,16.30
2018-05-10T00:43:13.245Z,16.30
2018-05-10T00:45:41.527Z,16.10
2018-05-10T00:48:09.013Z,16.10
2018-05-10T00:50:36.493Z,16.10
2018-05-10T00:53:03.988Z,16.10
2018-05-10T00:55:32.233Z,15.90
2018-05-10T00:57:59.729Z,15.90
2018-05-10T01:00:27.216Z,16.00
2018-05-10T01:02:54.894Z,15.80
2018-05-10T01:05:22.361Z,15.80
2018-05-10T01:07:49.832Z,15.80
2018-05-10T01:10:17.325Z,15.80
2018-05-10T01:12:44.837Z,15.80
2018-05-10T01:15:12.328Z,15.90
2018-05-10T01:17:39.806Z,15.80
2018-05-10T01:20:07.292Z,15.90
2018-05-10T01:22:34.781Z,15.80
2018-05-10T01:25:03.021Z,15.70
2018-05-10T01:27:30.508Z,15.70
2018-05-10T01:29:58.824Z,15.50
2018-05-10T01:32:26.637Z,15.50
2018-05-10T01:35:05.932Z,15.60
2018-05-10T01:37:33.420Z,15.50
2018-05-10T01:40:00.894Z,15.60
2018-05-10T01:42:29.171Z,15.60
2018-05-10T01:44:57.409Z,15.60
2018-05-10T01:47:24.893Z,15.60
2018-05-10T01:49:53.137Z,15.30
2018-05-10T01:52:20.624Z,15.30
2018-05-10T01:54:48.888Z,15.10
2018-05-10T01:57:16.384Z,15.10
2018-05-10T01:59:43.872Z,15.10
2018-05-10T02:02:11.353Z,14.90
2018-05-10T02:04:38.861Z,14.70
2018-05-10T02:07:06.340Z,14.60
2018-05-10T02:09:33.842Z,14.60
2018-05-10T02:12:01.439Z,14.40
2018-05-10T02:14:28.917Z,14.30
2018-05-10T02:16:56.413Z,14.40
2018-05-10T02:19:23.880Z,14.30
2018-05-10T02:21:52.132Z,14.40
2018-05-10T02:24:19.605Z,14.40
2018-05-10T02:26:48.135Z,14.20
2018-05-10T02:29:15.603Z,14.20
2018-05-10T02:31:43.093Z,14.20
2018-05-10T02:34:11.405Z,14.10
2018-05-10T02:36:38.877Z,14.10
2018-05-10T02:39:06.378Z,14.10
2018-05-10T02:41:33.848Z,14.10
2018-05-10T02:44:02.116Z,14.10
2018-05-10T02:46:30.353Z,14.00
2018-05-10T02:48:57.861Z,14.00
2018-05-10T02:51:26.117Z,13.80
2018-05-10T02:53:54.357Z,13.80
2018-05-10T02:56:21.885Z,13.80
2018-05-10T02:58:49.457Z,13.90
2018-05-10T03:01:16.965Z,13.80
2018-05-10T03:03:45.206Z,13.90
2018-05-10T03:06:12.686Z,13.90
2018-05-10T03:08:40.199Z,13.70
2018-05-10T03:11:07.669Z,13.80
2018-05-10T03:13:35.158Z,13.80
2018-05-10T03:16:02.638Z,13.90
2018-05-10T03:18:30.135Z,13.80
2018-05-10T03:20:57.609Z,13.80
2018-05-10T03:23:25.081Z,13.80
2018-05-10T03:25:52.584Z,13.60
2018-05-10T03:28:20.064Z,13.70
2018-05-10T03:30:47.557Z,13.90
2018-05-10T03:33:15.876Z,13.80
2018-05-10T03:35:43.360Z,13.80
2018-05-10T03:38:10.851Z,13.70
2018-05-10T03:40:39.094Z,13.50
2018-05-10T03:43:06.588Z,13.50
2018-05-10T03:45:34.921Z,13.70
2018-05-10T03:48:02.498Z,13.70
2018-05-10T03:50:30.009Z,13.70
2018-05-10T03:52:58.147Z,13.60
2018-05-10T03:55:26.207Z,13.60
2018-05-10T03:57:53.676Z,13.60
2018-05-10T04:00:22.549Z,13.50
2018-05-10T04:06:14.805Z,13.50
2018-05-10T04:08:54.912Z,13.50
2018-05-10T04:11:28.461Z,13.50
2018-05-10T04:13:56.752Z,13.50
2018-05-10T04:16:24.993Z,13.50
2018-05-10T04:18:52.480Z,13.50
2018-05-10T04:21:19.953Z,13.50
2018-05-10T04:23:47.461Z,13.60
2018-05-10T04:26:14.928Z,13.60
2018-05-10T04:28:42.432Z,13.60
2018-05-10T04:31:09.903Z,13.60
2018-05-10T04:33:37.380Z,13.50
2018-05-10T04:36:04.866Z,13.40
2018-05-10T04:38:33.121Z,13.50
2018-05-10T04:41:00.609Z,13.50
2018-05-10T04:43:28.851Z,13.70
2018-05-10T04:45:56.359Z,13.60
2018-05-10T04:48:23.833Z,13.50
2018-05-10T04:50:51.300Z,13.40
2018-05-10T04:53:19.049Z,13.60
2018-05-10T04:55:46.556Z,13.50
2018-05-10T04:58:14.814Z,13.60
2018-05-10T05:00:42.287Z,13.60
2018-05-10T05:03:10.570Z,13.70
2018-05-10T05:05:38.809Z,13.60
2018-05-10T05:08:06.298Z,13.60
2018-05-10T05:10:34.556Z,13.70
2018-05-10T05:13:02.029Z,13.60
2018-05-10T05:15:30.291Z,13.50
2018-05-10T05:17:58.540Z,13.80
2018-05-10T05:20:26.040Z,13.70
2018-05-10T05:22:53.624Z,13.90
2018-05-10T05:25:21.113Z,13.80
2018-05-10T05:27:48.656Z,14.10
2018-05-10T05:30:16.152Z,13.80
2018-05-10T05:32:43.642Z,13.90
2018-05-10T05:35:11.898Z,13.80
2018-05-10T05:37:39.395Z,13.70
2018-05-10T05:40:06.896Z,13.90
2018-05-10T05:42:35.909Z,13.80
2018-05-10T05:45:04.150Z,13.60
2018-05-10T05:47:31.636Z,13.60
2018-05-10T05:49:59.126Z,13.70
2018-05-10T05:52:26.688Z,13.80
2018-05-10T05:54:54.203Z,13.90
2018-05-10T05:57:21.685Z,14.00
2018-05-10T05:59:49.944Z,14.20
2018-05-10T06:02:17.412Z,14.10
2018-05-10T06:04:44.910Z,14.00
2018-05-10T06:07:12.414Z,13.70
2018-05-10T06:09:40.656Z,14.20
2018-05-10T06:12:08.164Z,14.10
2018-05-10T06:14:35.629Z,14.00
2018-05-10T06:17:03.190Z,14.30
2018-05-10T06:19:30.708Z,14.20
2018-05-10T06:21:58.196Z,14.00
2018-05-10T06:24:25.685Z,14.20
2018-05-10T06:26:53.165Z,14.20
2018-05-10T06:29:20.648Z,14.30
2018-05-10T06:31:48.885Z,14.20
2018-05-10T06:34:16.410Z,14.20
2018-05-10T06:36:46.213Z,13.80
2018-05-10T06:39:21.432Z,13.80
2018-05-10T06:41:49.647Z,14.10
2018-05-10T06:44:19.545Z,14.30
2018-05-10T06:46:52.291Z,14.30
2018-05-10T06:49:23.326Z,14.50
2018-05-10T06:51:59.554Z,14.30
2018-05-10T06:54:30.338Z,14.20
2018-05-10T06:57:06.947Z,14.30
2018-05-10T06:59:36.464Z,13.90
2018-05-10T07:02:07.991Z,14.10
2018-05-10T07:04:37.006Z,14.30
2018-05-10T07:07:05.226Z,14.10
2018-05-10T07:09:34.826Z,14.30
2018-05-10T07:12:05.086Z,14.30
2018-05-10T07:14:36.252Z,14.00
2018-05-10T07:17:09.054Z,14.00
2018-05-10T07:19:39.375Z,14.20
2018-05-10T07:22:24.758Z,14.00
2018-05-10T07:25:00.943Z,14.30
2018-05-10T07:27:38.049Z,14.30
2018-05-10T07:30:07.930Z,14.00
2018-05-10T07:32:38.753Z,13.80
2018-05-10T07:35:10.720Z,13.60
2018-05-10T07:37:44.827Z,13.50
2018-05-10T07:40:16.793Z,13.50
2018-05-10T07:42:49.576Z,13.20
2018-05-10T07:45:19.904Z,13.20
2018-05-10T07:47:53.636Z,13.20
2018-05-10T07:50:25.669Z,13.00
2018-05-10T07:52:56.304Z,12.70
2018-05-10T07:58:08.744Z,12.40
2018-05-10T08:00:39.153Z,12.30
2018-05-10T08:03:10.194Z,12.30
2018-05-10T08:05:49.223Z,12.30
2018-05-10T08:08:18.728Z,12.30
2018-05-10T08:10:48.541Z,12.20
2018-05-10T08:13:19.405Z,12.10
2018-05-10T08:15:47.758Z,12.20
2018-05-10T08:18:16.653Z,12.40
2018-05-10T08:20:48.839Z,12.40
2018-05-10T08:23:17.798Z,12.20
2018-05-10T08:25:53.360Z,12.10
2018-05-10T08:28:23.437Z,12.10
2018-05-10T08:30:55.134Z,12.20
2018-05-10T08:33:25.772Z,12.10
2018-05-10T08:35:55.325Z,12.20
2018-05-10T08:38:24.154Z,12.20
2018-05-10T08:41:01.651Z,12.20
2018-05-10T08:43:32.244Z,12.40
2018-05-10T08:46:06.565Z,12.40
2018-05-10T08:48:37.610Z,12.50
2018-05-10T08:51:07.364Z,12.50
2018-05-10T08:53:36.719Z,12.90
2018-05-10T08:56:09.417Z,12.70
2018-05-10T08:58:37.493Z,12.70
2018-05-10T09:01:11.767Z,12.60
2018-05-10T09:03:41.608Z,12.70
2018-05-10T09:06:13.063Z,12.70
2018-05-10T09:11:45.043Z,12.70
2018-05-10T09:14:14.872Z,12.70
2018-05-10T09:16:48.948Z,12.70
2018-05-10T09:19:19.518Z,13.00
2018-05-10T09:21:53.997Z,13.00
2018-05-10T09:24:23.202Z,13.10
2018-05-10T09:35:51.377Z,13.50
2018-05-10T09:38:19.655Z,13.80
2018-05-10T09:40:47.125Z,13.70
2018-05-10T09:43:15.381Z,13.60
2018-05-10T09:45:42.857Z,13.60
2018-05-10T09:48:11.109Z,13.40
2018-05-10T09:50:38.589Z,13.40
2018-05-10T09:53:06.897Z,13.20
2018-05-10T09:55:34.361Z,13.20
2018-05-10T09:58:01.854Z,13.10
2018-05-10T10:00:29.359Z,13.30
2018-05-10T10:02:56.894Z,13.50
2018-05-10T10:05:25.156Z,13.20
2018-05-10T10:07:53.057Z,13.20
2018-05-10T10:10:20.553Z,13.30
2018-05-10T10:12:48.059Z,13.30
2018-05-10T10:15:15.560Z,13.10
2018-05-10T10:17:43.158Z,13.00
2018-05-10T10:20:10.585Z,13.10
2018-05-10T10:22:38.097Z,13.20
2018-05-10T10:25:05.612Z,13.20
2018-05-10T10:27:33.104Z,13.20
2018-05-10T10:30:00.625Z,13.20
2018-05-10T10:32:28.186Z,13.30
2018-05-10T10:34:55.628Z,13.40
2018-05-10T10:37:23.113Z,13.30
2018-05-10T10:39:51.356Z,13.70
2018-05-10T10:42:18.841Z,13.70
2018-05-10T10:44:47.152Z,13.40
2018-05-10T10:47:14.649Z,13.40
2018-05-10T10:49:42.129Z,13.40
2018-05-10T10:52:10.381Z,13.90
2018-05-10T10:54:37.865Z,13.90
2018-05-10T10:57:06.116Z,14.30
2018-05-10T10:59:33.590Z,14.30
2018-05-10T11:02:01.908Z,14.60
2018-05-10T11:04:29.417Z,14.60
2018-05-10T11:06:58.009Z,15.00
2018-05-10T11:09:26.269Z,14.80
2018-05-10T11:11:53.744Z,14.80
2018-05-10T11:14:22.048Z,15.40
2018-05-10T11:16:49.572Z,15.40
2018-05-10T11:19:17.839Z,15.10
2018-05-10T11:21:46.106Z,15.10
2018-05-10T11:24:13.597Z,15.10
2018-05-10T11:26:41.069Z,15.40
2018-05-10T11:29:08.601Z,15.20
2018-05-10T11:31:36.854Z,15.10
2018-05-10T11:34:05.116Z,15.10
2018-05-10T11:36:32.627Z,15.10
2018-05-10T11:39:00.131Z,15.10
2018-05-10T11:41:27.646Z,15.10
2018-05-10T11:43:55.130Z,15.10
2018-05-10T11:46:22.654Z,15.20
2018-05-10T11:48:50.121Z,15.20
2018-05-10T11:51:17.637Z,15.20
2018-05-10T11:53:45.884Z,15.10
2018-05-10T11:56:13.414Z,15.10
2018-05-10T11:58:40.869Z,15.50
2018-05-10T12:01:08.361Z,15.60
2018-05-10T12:03:36.603Z,15.70
2018-05-10T12:06:04.103Z,15.70
2018-05-10T12:08:32.369Z,15.90
2018-05-10T12:10:59.837Z,15.80
2018-05-10T12:13:27.350Z,15.80
2018-05-10T12:15:54.820Z,15.80
2018-05-10T12:18:22.325Z,15.50
2018-05-10T12:20:49.797Z,15.40
2018-05-10T12:23:17.294Z,15.60
2018-05-10T12:25:44.770Z,15.70
2018-05-10T12:28:12.290Z,15.50
2018-05-10T12:30:39.784Z,15.90
2018-05-10T12:33:07.288Z,16.00
2018-05-10T12:35:34.786Z,16.40
2018-05-10T12:38:03.065Z,16.60
2018-05-10T12:40:30.553Z,16.50
2018-05-10T12:42:58.037Z,16.50
2018-05-10T12:45:25.526Z,16.90
2018-05-10T12:47:53.001Z,17.20
2018-05-10T12:50:21.249Z,18.30
2018-05-10T12:52:48.731Z,18.30
2018-05-10T12:55:16.996Z,18.70
2018-05-10T12:57:44.489Z,18.70
2018-05-10T13:00:11.981Z,18.70
2018-05-10T13:02:39.452Z,18.00
2018-05-10T13:05:06.957Z,17.90
2018-05-10T13:07:34.426Z,17.50
2018-05-10T13:10:01.905Z,17.50
2018-05-10T13:12:29.385Z,17.80
2018-05-10T13:14:56.874Z,17.90
2018-05-10T13:17:25.153Z,17.90
2018-05-10T13:19:52.638Z,17.80
2018-05-10T13:22:20.121Z,18.20
2018-05-10T13:24:47.589Z,19.40
2018-05-10T13:27:15.094Z,19.00
2018-05-10T13:29:42.597Z,19.10
2018-05-10T13:32:10.105Z,19.30
2018-05-10T13:34:37.587Z,18.70
2018-05-10T13:37:05.061Z,17.70
2018-05-10T13:39:32.561Z,18.30
2018-05-10T13:42:00.134Z,18.80
2018-05-10T13:44:27.613Z,18.60
2018-05-10T13:46:55.079Z,18.30
2018-05-10T13:49:22.577Z,18.30
2018-05-10T13:51:50.820Z,17.70
2018-05-10T13:54:18.304Z,17.70
2018-05-10T13:56:46.548Z,17.40
2018-05-10T13:59:14.033Z,17.40
2018-05-10T14:01:42.293Z,17.20
2018-05-10T14:04:09.809Z,17.20
2018-05-10T14:06:37.416Z,17.30
2018-05-10T14:09:05.699Z,17.30
2018-05-10T14:11:33.931Z,17.10
2018-05-10T14:14:01.399Z,17.10
2018-05-10T14:16:28.939Z,17.10
2018-05-10T14:18:59.547Z,17.00
2018-05-10T14:21:28.618Z,17.00
2018-05-10T14:23:56.880Z,17.00
2018-05-10T14:26:25.109Z,17.00
2018-05-10T14:28:52.639Z,17.00
2018-05-10T14:31:20.157Z,16.80
2018-05-10T14:33:47.624Z,16.70
2018-05-10T14:36:15.884Z,16.60
2018-05-10T14:38:43.366Z,16.60
2018-05-10T14:41:11.617Z,16.40
2018-05-10T14:43:39.086Z,16.30
2018-05-10T14:46:06.569Z,16.40
2018-05-10T14:48:34.036Z,16.20
2018-05-10T14:51:01.558Z,16.10
2018-05-10T14:53:29.793Z,16.10
2018-05-10T14:55:57.327Z,16.10
2018-05-10T14:58:24.801Z,16.10
2018-05-10T15:00:52.293Z,16.20
2018-05-10T15:03:20.201Z,16.40
2018-05-10T15:05:47.685Z,16.20
2018-05-10T15:08:15.153Z,16.20
2018-05-10T15:10:42.641Z,16.20
2018-05-10T15:13:10.877Z,16.50
2018-05-10T15:15:38.439Z,16.50
2018-05-10T15:18:06.617Z,16.60
2018-05-10T15:20:34.085Z,16.60
2018-05-10T15:23:01.573Z,16.90
2018-05-10T15:25:29.038Z,16.80
2018-05-10T15:27:56.529Z,16.80
2018-05-10T15:30:24.022Z,17.30
2018-05-10T15:32:52.297Z,17.50
2018-05-10T15:35:20.545Z,17.20
2018-05-10T15:37:48.037Z,17.20
2018-05-10T15:40:16.278Z,17.70
2018-05-10T15:42:43.773Z,17.70
2018-05-10T15:45:12.014Z,17.50
2018-05-10T15:47:39.497Z,17.50
2018-05-10T15:50:07.800Z,17.70
2018-05-10T15:52:35.278Z,17.70
2018-05-10T15:55:02.775Z,17.50
2018-05-10T15:57:30.247Z,17.40
2018-05-10T15:59:57.739Z,17.50
2018-05-10T16:02:25.218Z,17.60
2018-05-10T16:04:52.709Z,18.00
2018-05-10T16:07:20.945Z,18.00
2018-05-10T16:09:48.478Z,18.00
2018-05-10T16:12:15.943Z,18.20
2018-05-10T16:14:43.433Z,18.00
2018-05-10T16:17:10.937Z,17.10
2018-05-10T16:19:38.421Z,17.10
2018-05-10T16:22:05.894Z,17.00
2018-05-10T16:24:33.384Z,17.00
2018-05-10T16:27:01.681Z,17.20
2018-05-10T16:29:29.161Z,17.30
2018-05-10T16:31:56.630Z,17.20
2018-05-10T16:34:24.161Z,17.30
2018-05-10T16:36:51.641Z,17.10
2018-05-10T16:39:19.113Z,17.40
2018-05-10T16:41:46.625Z,17.20
2018-05-10T16:44:14.096Z,17.30
2018-05-10T16:46:41.579Z,17.00
2018-05-10T16:49:09.053Z,17.00
2018-05-10T16:51:37.312Z,16.60
2018-05-10T16:54:04.784Z,16.60
2018-05-10T16:56:33.071Z,16.60
2018-05-10T16:59:01.336Z,16.70
2018-05-10T17:01:29.593Z,16.60
2018-05-10T17:03:57.159Z,16.60
2018-05-10T17:06:24.649Z,16.50
2018-05-10T17:08:52.219Z,16.50
2018-05-10T17:11:19.689Z,16.50
2018-05-10T17:13:47.177Z,16.50
2018-05-10T17:16:14.645Z,16.40
2018-05-10T17:18:42.162Z,16.50
2018-05-10T17:21:09.625Z,16.40
2018-05-10T17:23:37.167Z,16.40
2018-05-10T17:26:04.655Z,16.30
2018-05-10T17:28:32.180Z,16.30
2018-05-10T17:30:59.730Z,16.30
2018-05-10T17:33:27.164Z,16.50
2018-05-10T17:35:55.397Z,16.50
2018-05-10T17:38:22.905Z,16.50
2018-05-10T17:40:51.157Z,16.50
2018-05-10T17:43:18.632Z,16.50
2018-05-10T17:45:46.877Z,16.60
2018-05-10T17:48:14.481Z,16.60
2018-05-10T17:50:41.927Z,16.50
2018-05-10T17:53:09.395Z,16.30
2018-05-10T17:55:36.885Z,16.20
2018-05-10T17:58:04.366Z,16.10
2018-05-10T18:00:32.246Z,16.00
2018-05-10T18:03:00.488Z,16.10
2018-05-10T18:05:27.982Z,16.10
2018-05-10T18:07:56.234Z,15.80
2018-05-10T18:10:23.697Z,15.80
2018-05-10T18:12:51.949Z,15.70
2018-05-10T18:15:19.429Z,15.70
2018-05-10T18:17:47.689Z,15.50
2018-05-10T18:20:16.661Z,15.50
2018-05-10T18:22:44.141Z,15.50
2018-05-10T18:25:11.609Z,15.60
2018-05-10T18:27:39.885Z,15.50
2018-05-10T18:30:08.121Z,15.40
2018-05-10T18:32:35.585Z,15.40
2018-05-10T18:35:03.066Z,15.50
2018-05-10T18:37:31.297Z,15.30
2018-05-10T18:39:58.805Z,15.30
2018-05-10T18:42:26.303Z,15.20
2018-05-10T18:44:53.783Z,15.30
2018-05-10T18:47:21.266Z,15.30
2018-05-10T18:49:48.751Z,15.20
2018-05-10T18:52:16.225Z,15.30
2018-05-10T18:54:43.856Z,15.20
2018-05-10T18:57:12.094Z,15.10
2018-05-10T18:59:39.574Z,15.10
2018-05-10T19:02:07.840Z,15.00
2018-05-10T19:04:35.749Z,15.00
2018-05-10T19:07:03.276Z,14.80
2018-05-10T19:09:31.505Z,14.80
2018-05-10T19:11:59.005Z,14.80
2018-05-10T19:14:27.326Z,14.90
2018-05-10T19:16:54.814Z,14.90
2018-05-10T19:19:22.293Z,14.90
2018-05-10T19:21:50.550Z,14.70
2018-05-10T19:24:18.017Z,14.70
2018-05-10T19:26:46.245Z,14.60
2018-05-10T19:29:13.730Z,14.50
2018-05-10T19:31:41.226Z,14.50
2018-05-10T19:34:09.460Z,14.40
2018-05-10T19:36:36.969Z,14.40
2018-05-10T19:39:04.449Z,14.30
2018-05-10T19:41:31.964Z,14.30
2018-05-10T19:44:00.226Z,14.20
2018-05-10T19:46:28.466Z,14.20
2018-05-10T19:48:55.961Z,14.20
2018-05-10T19:51:24.290Z,14.10
2018-05-10T19:53:51.697Z,14.10
2018-05-10T19:56:19.946Z,14.10
2018-05-10T19:58:47.446Z,14.00
2018-05-10T20:01:15.015Z,13.90
2018-05-10T20:03:42.498Z,13.80
2018-05-10T20:06:09.988Z,13.70
2018-05-10T20:08:38.330Z,13.60
2018-05-10T20:11:05.765Z,13.60
2018-05-10T20:13:33.247Z,13.50
2018-05-10T20:16:00.728Z,13.30
2018-05-10T20:18:28.973Z,13.20
2018-05-10T20:20:56.474Z,13.20
2018-05-10T20:23:24.713Z,13.10
2018-05-10T20:25:52.223Z,13.10
2018-05-10T20:28:19.763Z,13.10
2018-05-10T20:30:47.196Z,13.10
2018-05-10T20:33:14.676Z,13.00
2018-05-10T20:35:42.914Z,12.90
2018-05-10T20:38:10.431Z,13.00
2018-05-10T20:40:37.901Z,13.00
2018-05-10T20:43:05.401Z,12.90
2018-05-10T20:45:33.642Z,12.80
2018-05-10T20:48:01.132Z,12.70
2018-05-10T20:50:28.682Z,12.80
2018-05-10T20:52:56.156Z,12.70
2018-05-10T20:55:24.397Z,12.60
2018-05-10T20:57:51.892Z,12.60
2018-05-10T21:00:20.125Z,12.50
2018-05-10T21:02:47.597Z,12.50
2018-05-10T21:05:15.076Z,12.50
2018-05-10T21:07:43.318Z,12.40
2018-05-10T21:10:11.463Z,12.30
2018-05-10T21:12:42.822Z,12.30
2018-05-10T21:15:10.320Z,12.30
2018-05-10T21:17:38.553Z,12.20
2018-05-10T21:20:06.037Z,12.10
2018-05-10T21:22:33.529Z,13.30
2018-05-10T21:25:01.067Z,12.10
2018-05-10T21:27:28.559Z,12.10
2018-05-10T21:29:56.027Z,12.10
2018-05-10T21:32:23.510Z,12.10
2018-05-10T21:34:50.977Z,12.20
2018-05-10T21:37:18.462Z,12.10
2018-05-10T21:39:45.938Z,12.10
2018-05-10T21:42:13.421Z,12.00
2018-05-10T21:44:40.936Z,12.00
2018-05-10T21:47:09.181Z,11.80
2018-05-10T21:49:48.597Z,11.80
2018-05-10T21:52:16.085Z,11.90
2018-05-10T21:54:44.324Z,11.80
2018-05-10T21:57:11.805Z,11.80
2018-05-10T21:59:39.290Z,11.80
2018-05-10T22:02:06.760Z,11.80
2018-05-10T22:04:34.246Z,11.80
2018-05-10T22:07:01.717Z,11.70
2018-05-10T22:09:29.209Z,11.70
2018-05-10T22:11:57.446Z,11.70
2018-05-10T22:14:24.925Z,11.70
2018-05-10T22:16:53.170Z,11.60
2018-05-10T22:19:20.687Z,11.50
2018-05-10T22:21:48.153Z,11.50
2018-05-10T22:24:15.658Z,11.50
2018-05-10T22:26:43.153Z,11.40
2018-05-10T22:29:10.622Z,11.30
2018-05-10T22:31:38.106Z,11.30
2018-05-10T22:34:05.578Z,11.20
2018-05-10T22:36:33.060Z,11.10
2018-05-10T22:39:00.526Z,11.10
2018-05-10T22:41:28.029Z,11.00
2018-05-10T22:43:55.497Z,11.00
2018-05-10T22:46:22.977Z,11.00
2018-05-10T22:48:51.214Z,11.00
2018-05-10T22:51:18.719Z,11.00
2018-05-10T22:53:46.205Z,10.90
2018-05-10T22:56:13.677Z,11.00
2018-05-10T22:58:41.165Z,11.10
2018-05-10T23:01:08.633Z,11.00
2018-05-10T23:03:36.886Z,11.00
2018-05-10T23:06:04.372Z,10.90
2018-05-10T23:08:31.877Z,11.00
2018-05-10T23:10:59.367Z,11.00
2018-05-10T23:13:26.865Z,11.00
2018-05-10T23:15:54.353Z,10.90
2018-05-10T23:18:21.836Z,11.00
2018-05-10T23:20:50.081Z,10.90
2018-05-10T23:23:17.578Z,10.90
2018-05-10T23:25:45.864Z,10.80
2018-05-10T23:28:13.341Z,10.80
2018-05-10T23:30:41.171Z,10.80
2018-05-10T23:33:08.621Z,10.80
2018-05-10T23:35:36.886Z,10.80
2018-05-10T23:38:04.362Z,10.70
2018-05-10T23:40:32.649Z,10.80
2018-05-10T23:43:00.120Z,10.80
2018-05-10T23:45:27.625Z,10.80
2018-05-10T23:47:55.129Z,10.80
2018-05-10T23:50:22.685Z,10.80
2018-05-10T23:52:50.154Z,10.60
2018-05-10T23:55:17.620Z,10.60
2018-05-10T23:57:45.113Z,10.70
